ミラノ・マルペンサ国際空港の過去48時間の天気

ミラノ・マルペンサ国際空港 (Milano / Malpensa)

現在時刻: 9/16 17:14 CEST (9/16 15:14 UTC) 以下の時間は現地時間です。

過去48時間のMETAR気象情報
時間 風向 風速(m/s) 視程 気温(℃) 湿度(%) 気圧(hPa) 天気現象
16 16:50 南西 3 10km以上 28 55 1017
16 16:20 不定 2 10km以上 28 51 1017
16 15:50 南西 2 10km以上 29 52 1017
16 15:20 不定 2 10km以上 28 51 1018
16 14:50 3 10km以上 28 51 1018
16 14:20 3 10km以上 28 51 1018
16 13:50 2 10km以上 27 54 1019
16 13:20 不定 2 10km以上 27 54 1019
16 12:50 南西 3 10km以上 26 61 1019
16 12:20 西南西 3 10km以上 26 58 1020
16 11:50 2 10km以上 26 61 1020
16 11:20 2 10km以上 25 65 1020
16 10:50 不定 1 9000m 25 69 1020
16 10:20 不定 1 9000m 24 74 1020
16 09:50 不定 1 9000m 22 94 1021
16 09:20 北北東 2 8000m 21 100 1021
16 08:50 北北東 2 8000m 20 100 1020
16 08:20 北北東 2 8000m 18 100 1020 地霧
16 07:50 2 8000m 17 100 1020 地霧
16 07:20 2 8000m 17 100 1020 散在した霧
16 06:50 北北東 2 10km以上 17 100 1020 地霧
16 06:20 北北東 2 10km以上 17 100 1020
16 05:50 北北東 2 10km以上 16 100 1020
16 05:20 2 10km以上 17 100 1020
16 04:50 北北東 2 10km以上 17 100 1021
16 04:20 2 10km以上 17 100 1021
16 03:50 不定 1 10km以上 18 100 1021
16 03:20 不定 1 10km以上 18 100 1021
16 02:50 不定 1 10km以上 18 100 1021
16 02:20 3 10km以上 18 100 1021
16 01:50 北北東 3 10km以上 18 100 1021
16 01:20 2 10km以上 18 100 1022
16 00:50 3 10km以上 18 100 1022
16 00:20 3 10km以上 19 94 1022
15 23:50 北北東 3 10km以上 19 94 1022
15 23:20 3 10km以上 19 94 1022
15 22:50 北北東 3 10km以上 19 94 1022
15 22:20 2 10km以上 20 88 1023
15 21:50 不定 1 10km以上 21 83 1022
15 21:20 不定 1 10km以上 22 73 1022
15 20:50 南東 2 10km以上 23 69 1022
15 20:20 1 10km以上 24 65 1022
15 19:50 南南西 2 10km以上 25 61 1022
15 19:20 西南西 3 10km以上 26 54 1022
15 18:50 南西 4 10km以上 27 51 1022
15 18:20 西南西 3 10km以上 27 54 1022
15 17:50 南西 3 10km以上 27 51 1022
15 17:20 南南西 2 10km以上 28 51 1022
15 16:50 南南西 3 10km以上 28 48 1022
15 16:20 2 10km以上 28 48 1023
15 15:50 不定 2 10km以上 28 48 1023
15 15:20 不定 1 10km以上 28 48 1024
15 14:50 西南西 2 10km以上 28 48 1024
15 14:20 西 2 10km以上 27 51 1025
15 13:50 西 2 10km以上 27 54 1025
15 13:20 東北東 2 10km以上 26 61 1026
15 12:50 南東 2 10km以上 25 61 1026
15 12:20 2 10km以上 25 57 1026
15 11:50 南東 2 10km以上 25 61 1026
15 11:20 不定 1 10km以上 24 69 1027
15 10:50 不定 1 10km以上 23 69 1027
15 10:20 不定 1 10km以上 22 73 1027
15 09:50 不定 1 8000m 21 88 1027
15 09:20 1 8000m 20 100 1027
15 08:50 静穏 0 8000m 19 94 1026
15 08:20 静穏 0 10km以上 19 100 1026
15 07:50 北北東 2 10km以上 18 100 1026
15 07:20 北北東 2 10km以上 18 100 1026
15 06:50 北北東 3 10km以上 18 100 1026
15 06:20 2 10km以上 17 100 1026
15 05:50 1 10km以上 16 100 1026
15 05:20 北北東 3 10km以上 16 100 1026
15 04:50 北北東 3 10km以上 16 100 1026
15 04:20 2 10km以上 17 100 1026
15 03:50 不定 1 10km以上 18 100 1027
15 03:20 北北東 3 10km以上 17 100 1027
15 02:50 北北東 3 10km以上 17 100 1027
15 02:20 3 10km以上 18 100 1027
15 01:50 北北東 3 10km以上 18 100 1027
15 01:20 北北東 3 10km以上 17 100 1027
15 00:50 北北西 2 10km以上 18 100 1027
15 00:20 2 10km以上 18 94 1027
14 23:50 2 10km以上 19 88 1027
14 23:20 北北東 1 10km以上 19 88 1028
14 22:50 北北東 2 10km以上 19 94 1028
14 22:20 北東 2 10km以上 19 88 1027
14 21:50 北東 2 10km以上 20 83 1027
14 21:20 不定 1 10km以上 20 83 1027
14 20:50 不定 1 10km以上 23 69 1027
14 20:20 西南西 2 10km以上 25 57 1027
14 19:50 南南西 2 10km以上 24 61 1026
14 19:20 南南西 3 10km以上 26 54 1026
14 18:50 南南西 3 10km以上 26 54 1026
14 18:20 南南西 3 10km以上 27 51 1026
14 17:50 不定 1 10km以上 28 48 1026
14 17:20 不定 1 10km以上 28 48 1026
LIMC 161450Z 22005KT 180V290 CAVOK 28/18 Q1017 NOSIG
LIMC 161420Z VRB03KT CAVOK 28/17 Q1017 NOSIG
LIMC 161350Z 23004KT 130V290 CAVOK 29/18 Q1017 NOSIG
LIMC 161320Z VRB04KT CAVOK 28/17 Q1018 NOSIG
LIMC 161250Z VRB05KT CAVOK 28/17 Q1018 NOSIG
LIMC 161220Z VRB05KT CAVOK 28/17 Q1018 NOSIG
LIMC 161150Z 17004KT 120V240 CAVOK 27/17 Q1019 NOSIG
LIMC 161120Z VRB03KT CAVOK 27/17 Q1019 NOSIG
LIMC 161050Z 23006KT 180V320 CAVOK 26/18 Q1019 NOSIG
LIMC 161020Z 25005KT 200V300 CAVOK 26/17 Q1020 NOSIG
LIMC 160950Z 18003KT 100V250 CAVOK 26/18 Q1020 NOSIG
LIMC 160920Z 18003KT 140V260 CAVOK 25/18 Q1020 NOSIG
LIMC 160850Z VRB02KT 9000 NSC 25/19 Q1020 NOSIG
LIMC 160820Z VRB02KT 9000 NSC 24/19 Q1020 NOSIG
LIMC 160750Z VRB02KT 9000 NSC 22/21 Q1021 NOSIG
LIMC 160720Z 02004KT 350V050 8000 NSC 21/21 Q1021 NOSIG
LIMC 160650Z 03003KT 010V080 8000 NSC 20/20 Q1020 NOSIG
LIMC 160620Z 03003KT 8000 MIFG NSC 18/18 Q1020 NOSIG
LIMC 160550Z 01003KT 8000 MIFG NSC 17/17 Q1020 NOSIG
LIMC 160520Z 01004KT 8000 R35R/P1500N R17L/0800VP1500U R35L/P1500N BCFG NSC 17/17 Q1020 NOSIG
LIMC 160450Z 02004KT 9999 R35R/P1500N R17L/1400D R35L/P1500N MIFG NSC 17/17 Q1020 NOSIG
LIMC 160420Z 03004KT CAVOK 17/17 Q1020 NOSIG
LIMC 160350Z 02004KT CAVOK 16/16 Q1020 NOSIG
LIMC 160320Z 01004KT CAVOK 17/17 Q1020 NOSIG
LIMC 160250Z 02004KT CAVOK 17/17 Q1021 NOSIG
LIMC 160220Z 36004KT CAVOK 17/17 Q1021 NOSIG
LIMC 160150Z VRB01KT CAVOK 18/18 Q1021 NOSIG
LIMC 160120Z VRB02KT CAVOK 18/18 Q1021 NOSIG
LIMC 160050Z VRB02KT CAVOK 18/18 Q1021 NOSIG
LIMC 160020Z 01005KT CAVOK 18/18 Q1021 NOSIG
LIMC 152350Z 02006KT CAVOK 18/18 Q1021 NOSIG
LIMC 152320Z 01004KT CAVOK 18/18 Q1022 NOSIG
LIMC 152250Z 01005KT CAVOK 18/18 Q1022 NOSIG
LIMC 152220Z 36005KT CAVOK 19/18 Q1022 NOSIG
LIMC 152150Z 02005KT CAVOK 19/18 Q1022 NOSIG
LIMC 152120Z 01005KT CAVOK 19/18 Q1022 NOSIG
LIMC 152050Z 02005KT CAVOK 19/18 Q1022 NOSIG
LIMC 152020Z 01004KT CAVOK 20/18 Q1023 NOSIG
LIMC 151950Z VRB01KT CAVOK 21/18 Q1022 NOSIG
LIMC 151920Z VRB01KT CAVOK 22/17 Q1022 NOSIG
LIMC 151850Z 14003KT 100V160 CAVOK 23/17 Q1022 NOSIG
LIMC 151820Z 17002KT CAVOK 24/17 Q1022 NOSIG
LIMC 151750Z 21004KT CAVOK 25/17 Q1022 NOSIG
LIMC 151720Z 24005KT 190V290 CAVOK 26/16 Q1022 NOSIG
LIMC 151650Z 23007KT 200V260 CAVOK 27/16 Q1022 NOSIG
LIMC 151620Z 25006KT CAVOK 27/17 Q1022 NOSIG
LIMC 151550Z 23006KT 180V260 CAVOK 27/16 Q1022 NOSIG
LIMC 151520Z 20004KT 150V250 CAVOK 28/17 Q1022 NOSIG
LIMC 151450Z 20005KT 120V240 CAVOK 28/16 Q1022 NOSIG
LIMC 151420Z 19004KT 140V270 CAVOK 28/16 Q1023 NOSIG
LIMC 151350Z VRB04KT CAVOK 28/16 Q1023 NOSIG
LIMC 151320Z VRB02KT CAVOK 28/16 Q1024 NOSIG
LIMC 151250Z 24003KT 130V280 CAVOK 28/16 Q1024 NOSIG
LIMC 151220Z 28003KT 220V350 CAVOK 27/16 Q1025 NOSIG
LIMC 151150Z 28004KT 230V020 CAVOK 27/17 Q1025 NOSIG
LIMC 151120Z 07003KT 330V120 CAVOK 26/18 Q1026 NOSIG
LIMC 151050Z 14003KT 070V190 9999 FEW050 25/17 Q1026 NOSIG
LIMC 151020Z 19003KT 150V240 9999 FEW050 25/16 Q1026 NOSIG
LIMC 150950Z 13003KT 060V190 CAVOK 25/17 Q1026 NOSIG
LIMC 150920Z VRB02KT 9999 SCT050 24/18 Q1027 NOSIG
LIMC 150850Z VRB01KT 9999 BKN045 23/17 Q1027 NOSIG
LIMC 150820Z VRB01KT 9999 BKN045 22/17 Q1027 NOSIG
LIMC 150750Z VRB01KT 8000 BKN045 21/19 Q1027 NOSIG
LIMC 150720Z 08002KT 8000 SCT045 20/20 Q1027 NOSIG
LIMC 150650Z 00000KT 8000 SCT045 19/18 Q1026 NOSIG
LIMC 150620Z 00000KT CAVOK 19/19 Q1026 NOSIG
LIMC 150550Z 02004KT CAVOK 18/18 Q1026 NOSIG
LIMC 150520Z 03004KT CAVOK 18/18 Q1026 NOSIG
LIMC 150450Z 02005KT 9999 BKN045 18/18 Q1026 NOSIG
LIMC 150420Z 35004KT 9999 BKN045 17/17 Q1026 NOSIG
LIMC 150350Z 35002KT 9999 SCT040 16/16 Q1026 NOSIG
LIMC 150320Z 02005KT CAVOK 16/16 Q1026 NOSIG
LIMC 150250Z 02005KT CAVOK 16/16 Q1026 NOSIG
LIMC 150220Z 01004KT 9999 SCT040 17/17 Q1026 NOSIG
LIMC 150150Z VRB02KT CAVOK 18/18 Q1027 NOSIG
LIMC 150120Z 02005KT 9999 SCT060 17/17 Q1027 NOSIG
LIMC 150050Z 02005KT CAVOK 17/17 Q1027 NOSIG
LIMC 150020Z 01005KT CAVOK 18/18 Q1027 NOSIG
LIMC 142350Z 02005KT CAVOK 18/18 Q1027 NOSIG
LIMC 142320Z 02005KT CAVOK 17/17 Q1027 NOSIG
LIMC 142250Z 34004KT CAVOK 18/18 Q1027 NOSIG
LIMC 142220Z 01004KT CAVOK 18/17 Q1027 NOSIG
LIMC 142150Z 01003KT CAVOK 19/17 Q1027 NOSIG
LIMC 142120Z 02002KT CAVOK 19/17 Q1028 NOSIG
LIMC 142050Z 02004KT CAVOK 19/18 Q1028 NOSIG
LIMC 142020Z 04003KT 020V100 CAVOK 19/17 Q1027 NOSIG
LIMC 141950Z 05003KT 020V090 CAVOK 20/17 Q1027 NOSIG
LIMC 141920Z VRB02KT CAVOK 20/17 Q1027 NOSIG
LIMC 141850Z VRB01KT CAVOK 23/17 Q1027 NOSIG
LIMC 141820Z 25004KT 220V280 CAVOK 25/16 Q1027 NOSIG
LIMC 141750Z 20003KT 150V220 CAVOK 24/16 Q1026 NOSIG
LIMC 141720Z 21005KT CAVOK 26/16 Q1026 NOSIG
LIMC 141650Z 21006KT CAVOK 26/16 Q1026 NOSIG
LIMC 141620Z 20006KT CAVOK 27/16 Q1026 NOSIG
LIMC 141550Z VRB02KT CAVOK 28/16 Q1026 NOSIG
LIMC 141520Z VRB02KT CAVOK 28/16 Q1026 NOSIG